createdAt,value
2022-11-26T00:00:22.337Z,146.60
2022-11-26T00:03:14.988Z,153.00
2022-11-26T00:05:50.781Z,159.60
2022-11-26T00:11:38.298Z,141.20
2022-11-26T00:14:15.856Z,143.60
2022-11-26T00:16:48.083Z,129.50
2022-11-26T00:19:20.226Z,129.80
2022-11-26T00:21:52.363Z,120.50
2022-11-26T00:24:29.861Z,123.90
2022-11-26T00:27:02.596Z,123.60
2022-11-26T00:29:34.642Z,119.80
2022-11-26T00:32:15.242Z,120.20
2022-11-26T00:37:23.812Z,114.10
2022-11-26T00:39:57.357Z,108.80
2022-11-26T00:42:29.794Z,109.40
2022-11-26T00:45:01.942Z,118.90
2022-11-26T00:47:34.256Z,103.50
2022-11-26T00:50:07.816Z,114.60
2022-11-26T00:52:40.102Z,111.20
2022-11-26T00:55:25.320Z,95.80
2022-11-26T00:57:58.431Z,118.00
2022-11-26T01:00:32.736Z,107.30
2022-11-26T01:03:05.243Z,121.90
2022-11-26T01:05:38.501Z,117.30
2022-11-26T01:08:20.893Z,119.80
2022-11-26T01:10:55.996Z,115.40
2022-11-26T01:13:28.797Z,111.70
2022-11-26T01:16:02.474Z,117.40
2022-11-26T01:18:38.942Z,123.30
2022-11-26T01:21:13.111Z,119.60
2022-11-26T01:23:45.752Z,114.90
2022-11-26T01:26:20.705Z,142.70
2022-11-26T01:28:53.228Z,123.40
2022-11-26T01:31:27.544Z,114.70
2022-11-26T01:34:00.047Z,116.50
2022-11-26T01:36:34.143Z,104.80
2022-11-26T01:39:11.836Z,102.90
2022-11-26T01:41:53.049Z,115.20
2022-11-26T01:44:27.661Z,100.90
2022-11-26T01:47:00.952Z,109.70
2022-11-26T01:49:35.429Z,105.10
2022-11-26T01:52:14.478Z,101.10
2022-11-26T01:54:48.925Z,102.20
2022-11-26T01:57:26.624Z,110.80
2022-11-26T02:00:01.766Z,110.90
2022-11-26T02:02:34.741Z,116.10
2022-11-26T02:05:13.732Z,115.00
2022-11-26T02:07:46.239Z,112.40
2022-11-26T02:10:19.562Z,110.90
2022-11-26T02:12:53.008Z,123.90
2022-11-26T02:15:29.008Z,120.70
2022-11-26T02:18:06.689Z,121.50
2022-11-26T02:20:50.212Z,119.30
2022-11-26T02:23:59.720Z,115.40
2022-11-26T02:27:01.579Z,102.90
2022-11-26T02:29:54.556Z,103.80
2022-11-26T02:32:33.996Z,101.10
2022-11-26T02:35:13.634Z,104.10
2022-11-26T02:37:53.054Z,93.50
2022-11-26T02:40:27.112Z,97.60
2022-11-26T02:43:00.423Z,95.00
2022-11-26T02:45:36.419Z,98.20
2022-11-26T02:48:11.884Z,96.90
2022-11-26T02:50:48.534Z,94.10
2022-11-26T02:53:23.696Z,92.10
2022-11-26T02:56:03.042Z,89.50
2022-11-26T02:58:39.320Z,88.20
2022-11-26T03:01:16.888Z,85.60
2022-11-26T03:03:53.213Z,76.70
2022-11-26T03:06:27.276Z,81.70
2022-11-26T03:08:59.825Z,82.50
2022-11-26T03:11:32.048Z,81.10
2022-11-26T03:14:04.242Z,88.90
2022-11-26T03:16:36.492Z,87.30
2022-11-26T03:19:08.701Z,80.70
2022-11-26T03:21:41.201Z,96.90
2022-11-26T03:24:13.743Z,87.70
2022-11-26T03:26:46.043Z,97.70
2022-11-26T03:29:19.213Z,116.40
2022-11-26T03:31:51.389Z,104.70
2022-11-26T03:34:23.631Z,125.00
2022-11-26T03:36:56.235Z,117.50
2022-11-26T03:39:28.571Z,105.40
2022-11-26T03:42:00.981Z,103.20
2022-11-26T03:44:33.734Z,87.60
2022-11-26T03:47:06.306Z,90.40
2022-11-26T03:49:38.776Z,92.40
2022-11-26T03:52:10.954Z,82.30
2022-11-26T03:54:43.221Z,83.20
2022-11-26T03:57:18.382Z,81.20
2022-11-26T03:59:50.683Z,72.20
2022-11-26T04:02:22.923Z,81.20
2022-11-26T04:04:55.476Z,78.40
2022-11-26T04:07:27.724Z,86.90
2022-11-26T04:10:00.221Z,78.90
2022-11-26T04:12:32.420Z,85.90
2022-11-26T04:15:06.499Z,85.30
2022-11-26T04:17:38.705Z,80.40
2022-11-26T04:20:12.664Z,82.90
2022-11-26T04:22:44.755Z,82.40
2022-11-26T04:25:16.881Z,93.40
2022-11-26T04:27:48.937Z,88.30
2022-11-26T04:30:21.343Z,77.50
2022-11-26T04:32:53.732Z,81.20
2022-11-26T04:35:29.609Z,83.40
2022-11-26T04:38:01.804Z,81.30
2022-11-26T04:40:34.276Z,71.40
2022-11-26T04:43:06.417Z,75.60
2022-11-26T04:45:38.658Z,74.70
2022-11-26T04:48:11.058Z,74.30
2022-11-26T04:50:43.231Z,78.00
2022-11-26T04:53:15.507Z,77.70
2022-11-26T04:55:48.676Z,75.20
2022-11-26T04:58:23.425Z,69.60
2022-11-26T05:00:55.835Z,58.70
2022-11-26T05:03:29.193Z,72.40
2022-11-26T05:06:01.653Z,63.00
2022-11-26T05:08:33.882Z,63.10
2022-11-26T05:11:06.311Z,68.10
2022-11-26T05:13:39.689Z,72.20
2022-11-26T05:16:12.234Z,70.20
2022-11-26T05:18:44.469Z,71.30
2022-11-26T05:21:16.730Z,74.70
2022-11-26T05:23:48.853Z,74.80
2022-11-26T05:26:21.065Z,75.30
2022-11-26T05:28:54.568Z,65.80
2022-11-26T05:31:28.608Z,76.60
2022-11-26T05:34:00.762Z,74.00
2022-11-26T05:36:33.158Z,79.20
2022-11-26T05:39:05.542Z,74.80
2022-11-26T05:41:38.126Z,76.00
2022-11-26T05:44:10.461Z,77.80
2022-11-26T05:46:44.025Z,80.40
2022-11-26T05:49:16.209Z,78.10
2022-11-26T05:51:48.766Z,83.60
2022-11-26T05:54:20.941Z,87.40
2022-11-26T05:56:58.474Z,80.10
2022-11-26T05:59:32.350Z,81.90
2022-11-26T06:02:04.689Z,84.30
2022-11-26T06:04:37.063Z,80.60
2022-11-26T06:07:09.337Z,84.60
2022-11-26T06:09:41.751Z,85.50
2022-11-26T06:12:13.985Z,79.00
2022-11-26T06:14:46.369Z,80.30
2022-11-26T06:17:18.745Z,76.80
2022-11-26T06:19:51.079Z,79.70
2022-11-26T06:22:23.306Z,83.90
2022-11-26T06:24:57.890Z,75.40
2022-11-26T06:27:30.216Z,72.80
2022-11-26T06:30:04.717Z,77.90
2022-11-26T06:32:36.994Z,75.50
2022-11-26T06:35:10.252Z,75.80
2022-11-26T06:37:43.860Z,68.70
2022-11-26T06:40:22.356Z,76.10
2022-11-26T06:42:55.233Z,77.00
2022-11-26T06:45:27.763Z,91.00
2022-11-26T06:47:59.914Z,79.90
2022-11-26T06:50:32.444Z,71.70
2022-11-26T06:53:13.083Z,79.00
2022-11-26T06:55:45.298Z,79.50
2022-11-26T06:58:18.662Z,81.00
2022-11-26T07:00:50.743Z,79.60
2022-11-26T07:03:24.897Z,77.60
2022-11-26T07:05:59.140Z,81.40
2022-11-26T07:08:31.219Z,81.30
2022-11-26T07:11:05.809Z,81.20
2022-11-26T07:13:37.926Z,84.00
2022-11-26T07:16:10.587Z,95.60
2022-11-26T07:18:45.768Z,81.20
2022-11-26T07:21:17.922Z,84.10
2022-11-26T07:23:50.936Z,85.80
2022-11-26T07:26:24.182Z,87.60
2022-11-26T07:28:56.504Z,72.60
2022-11-26T07:31:28.603Z,78.90
2022-11-26T07:34:00.743Z,81.50
2022-11-26T07:36:33.436Z,84.70
2022-11-26T07:39:06.432Z,86.80
2022-11-26T07:41:38.771Z,85.50
2022-11-26T07:44:14.669Z,83.70
2022-11-26T07:46:46.730Z,86.50
2022-11-26T07:49:19.020Z,85.60
2022-11-26T07:51:51.254Z,86.30
2022-11-26T07:54:31.148Z,93.00
2022-11-26T07:57:03.394Z,88.60
2022-11-26T07:59:41.717Z,83.90
2022-11-26T08:02:16.641Z,81.10
2022-11-26T08:05:44.033Z,84.40
2022-11-26T08:08:16.197Z,91.30
2022-11-26T08:10:48.234Z,89.70
2022-11-26T08:13:20.257Z,98.00
2022-11-26T08:15:55.360Z,105.90
2022-11-26T08:18:27.453Z,89.20
2022-11-26T08:21:01.015Z,100.10
2022-11-26T08:23:34.712Z,104.90
2022-11-26T08:29:03.503Z,101.70
2022-11-26T08:31:38.003Z,103.40
2022-11-26T08:34:16.315Z,104.50
2022-11-26T08:36:49.121Z,88.80
2022-11-26T08:39:21.422Z,96.10
2022-11-26T08:41:53.666Z,100.30
2022-11-26T08:44:29.500Z,106.20
2022-11-26T08:47:01.824Z,97.40
2022-11-26T08:49:34.758Z,96.70
2022-11-26T08:52:07.520Z,89.10
2022-11-26T08:54:45.001Z,90.40
2022-11-26T08:58:07.009Z,83.40
2022-11-26T09:00:41.128Z,90.30
2022-11-26T09:03:13.325Z,83.90
2022-11-26T09:06:05.174Z,82.00
2022-11-26T09:09:00.016Z,84.70
2022-11-26T09:20:16.843Z,79.70
2022-11-26T09:22:50.368Z,132.20
2022-11-26T09:25:28.964Z,101.10
2022-11-26T09:28:01.144Z,97.90
2022-11-26T09:30:39.841Z,96.90
2022-11-26T09:33:12.099Z,89.20
2022-11-26T09:36:23.558Z,85.00
2022-11-26T09:39:02.429Z,85.70
2022-11-26T09:46:11.457Z,89.80
2022-11-26T09:50:02.573Z,92.30
2022-11-26T09:52:41.221Z,97.20
2022-11-26T09:55:21.266Z,112.40
2022-11-26T09:58:00.510Z,107.90
2022-11-26T10:00:36.679Z,97.90
2022-11-26T10:03:15.984Z,94.90
2022-11-26T10:06:05.966Z,96.60
2022-11-26T10:09:09.144Z,87.80
2022-11-26T10:11:53.489Z,92.90
2022-11-26T10:14:37.548Z,92.70
2022-11-26T10:17:29.460Z,89.00
2022-11-26T10:20:23.073Z,85.10
2022-11-26T10:23:00.321Z,85.90
2022-11-26T10:25:42.848Z,89.70
2022-11-26T10:28:22.258Z,90.40
2022-11-26T10:31:00.429Z,101.50
2022-11-26T10:33:39.090Z,86.50
2022-11-26T10:36:20.402Z,80.20
2022-11-26T10:38:53.086Z,61.80
2022-11-26T10:41:27.790Z,64.80
2022-11-26T10:44:13.801Z,75.50
2022-11-26T10:46:45.896Z,63.30
2022-11-26T10:49:26.699Z,68.30
2022-11-26T10:52:02.760Z,75.50
2022-11-26T10:54:37.728Z,81.60
2022-11-26T10:57:18.941Z,81.00
2022-11-26T10:59:53.289Z,78.70
2022-11-26T11:02:34.492Z,74.90
2022-11-26T11:05:09.370Z,71.40
2022-11-26T11:07:45.045Z,92.10
2022-11-26T11:10:18.895Z,90.80
2022-11-26T11:13:02.596Z,94.40
2022-11-26T11:15:36.304Z,94.70
2022-11-26T11:18:16.140Z,121.30
2022-11-26T11:20:56.725Z,97.70
2022-11-26T11:26:24.695Z,91.00
2022-11-26T11:28:58.312Z,87.00
2022-11-26T11:31:32.174Z,85.00
2022-11-26T11:34:21.615Z,85.20
2022-11-26T11:37:05.709Z,73.90
2022-11-26T11:39:38.356Z,73.50
2022-11-26T11:42:23.709Z,80.40
2022-11-26T11:44:57.653Z,52.40
2022-11-26T11:47:37.710Z,66.80
2022-11-26T11:50:21.188Z,63.70
2022-11-26T11:53:21.447Z,66.80
2022-11-26T11:56:09.884Z,56.80
2022-11-26T11:59:10.037Z,78.60
2022-11-26T12:01:55.261Z,65.80
2022-11-26T12:04:47.754Z,74.00
2022-11-26T12:07:38.714Z,85.00
2022-11-26T12:10:21.812Z,86.30
2022-11-26T12:12:56.782Z,88.90
2022-11-26T12:15:31.686Z,90.20
2022-11-26T12:18:14.812Z,83.00
2022-11-26T12:20:51.704Z,89.00
2022-11-26T12:23:33.741Z,63.20
2022-11-26T12:26:11.920Z,54.80
2022-11-26T12:29:03.290Z,68.90
2022-11-26T12:31:40.134Z,56.80
2022-11-26T12:34:18.025Z,53.70
2022-11-26T12:36:55.871Z,52.70
2022-11-26T12:49:14.194Z,58.40
2022-11-26T13:23:04.277Z,45.40
2022-11-26T13:25:52.854Z,47.70
2022-11-26T13:28:40.886Z,47.60
2022-11-26T13:31:29.122Z,41.30
2022-11-26T13:34:16.912Z,42.80
2022-11-26T13:37:10.008Z,54.30
2022-11-26T13:40:07.050Z,50.00
2022-11-26T13:42:59.226Z,55.50
2022-11-26T13:46:03.932Z,56.40
2022-11-26T14:02:22.778Z,49.60
2022-11-26T14:08:53.434Z,44.00
2022-11-26T14:11:57.994Z,52.60
2022-11-26T14:33:22.817Z,62.30
2022-11-26T14:39:44.114Z,47.80
2022-11-26T14:42:22.381Z,59.40
2022-11-26T15:03:09.507Z,107.70
2022-11-26T15:19:18.235Z,100.90
2022-11-26T15:22:32.064Z,93.20
2022-11-26T15:25:05.162Z,79.90
2022-11-26T15:28:19.273Z,127.50
2022-11-26T15:35:22.331Z,69.20
2022-11-26T15:38:01.845Z,78.60
2022-11-26T15:44:55.787Z,114.80
2022-11-26T15:47:34.434Z,99.90
2022-11-26T15:50:07.646Z,98.40
2022-11-26T15:52:47.808Z,99.80
2022-11-26T15:59:51.621Z,91.20
2022-11-26T16:20:00.757Z,81.30
2022-11-26T16:35:43.529Z,83.80
2022-11-26T16:38:25.003Z,87.80
2022-11-26T16:40:59.708Z,92.60
2022-11-26T16:45:03.940Z,83.10
2022-11-26T16:52:23.083Z,96.50
2022-11-26T16:54:55.680Z,80.40
2022-11-26T16:57:34.691Z,86.60
2022-11-26T17:00:09.766Z,80.20
2022-11-26T17:03:37.640Z,74.00
2022-11-26T17:10:41.076Z,78.50
2022-11-26T17:14:00.555Z,80.90
2022-11-26T17:21:24.249Z,112.90
2022-11-26T17:24:02.480Z,87.00
2022-11-26T17:26:34.884Z,87.50
2022-11-26T17:29:15.632Z,81.00
2022-11-26T17:32:14.850Z,76.10
2022-11-26T17:35:43.786Z,93.90
2022-11-26T17:38:17.843Z,88.70
2022-11-26T17:40:56.680Z,78.10
2022-11-26T17:43:28.988Z,68.20
2022-11-26T17:50:26.279Z,63.50
2022-11-26T17:53:47.430Z,76.00
2022-11-26T17:56:28.116Z,84.60
2022-11-26T17:59:03.453Z,89.40
2022-11-26T18:02:31.620Z,82.90
2022-11-26T18:05:04.143Z,80.50
2022-11-26T18:07:43.147Z,79.10
2022-11-26T18:14:48.328Z,80.90
2022-11-26T18:17:20.497Z,80.90
2022-11-26T18:19:59.702Z,110.80
2022-11-26T18:22:31.936Z,93.60
2022-11-26T18:25:11.078Z,85.60
2022-11-26T18:27:43.850Z,89.50
2022-11-26T18:34:41.252Z,92.50
2022-11-26T18:37:14.577Z,82.70
2022-11-26T18:39:46.817Z,78.80
2022-11-26T18:42:41.024Z,74.40
2022-11-26T18:45:25.843Z,77.80
2022-11-26T18:49:10.129Z,75.50
2022-11-26T18:55:58.651Z,70.20
2022-11-26T18:58:37.733Z,75.00
2022-11-26T19:01:16.550Z,70.40
2022-11-26T19:03:57.232Z,82.50
2022-11-26T19:15:26.665Z,86.10
2022-11-26T19:22:37.220Z,78.10
2022-11-26T19:29:51.716Z,70.30
2022-11-26T19:33:30.207Z,82.00
2022-11-26T19:36:11.492Z,70.60
2022-11-26T19:39:33.574Z,72.00
2022-11-26T19:42:13.202Z,83.10
2022-11-26T19:49:45.942Z,71.90
2022-11-26T19:52:18.190Z,69.80
2022-11-26T19:54:50.487Z,64.00
2022-11-26T20:02:05.187Z,58.10
2022-11-26T20:04:37.684Z,65.60
2022-11-26T20:12:25.254Z,55.50
2022-11-26T20:15:03.797Z,63.10
2022-11-26T20:17:35.974Z,60.10
2022-11-26T20:27:37.913Z,57.50
2022-11-26T20:30:12.242Z,62.00
2022-11-26T20:37:11.218Z,58.60
2022-11-26T20:44:43.484Z,92.10
2022-11-26T20:47:21.836Z,99.70
2022-11-26T20:49:54.079Z,96.40
2022-11-26T20:52:32.688Z,90.70
2022-11-26T20:59:58.021Z,51.10
2022-11-26T21:02:30.818Z,50.60
2022-11-26T21:05:36.970Z,56.80
2022-11-26T21:08:09.248Z,52.90
2022-11-26T21:10:47.964Z,60.90
2022-11-26T21:18:10.823Z,82.80
2022-11-26T21:21:13.627Z,87.90
2022-11-26T21:28:15.778Z,98.80
2022-11-26T21:30:49.455Z,107.40
2022-11-26T21:33:21.735Z,104.30
2022-11-26T21:36:54.114Z,98.70
2022-11-26T21:39:26.907Z,94.20
2022-11-26T21:41:59.026Z,113.10
2022-11-26T21:49:31.062Z,84.70
2022-11-26T21:52:30.518Z,96.30
2022-11-26T21:55:10.125Z,92.80
2022-11-26T21:58:21.777Z,92.40
2022-11-26T22:01:00.916Z,87.50
2022-11-26T22:03:35.033Z,91.00
2022-11-26T22:06:14.421Z,89.40
2022-11-26T22:08:47.622Z,91.40
2022-11-26T22:11:27.758Z,79.10
2022-11-26T22:18:50.835Z,89.40
2022-11-26T22:21:31.949Z,91.40
2022-11-26T22:24:21.951Z,86.40
2022-11-26T22:27:00.846Z,92.60
2022-11-26T22:29:32.999Z,87.40
2022-11-26T22:32:05.241Z,90.60
2022-11-26T22:34:44.248Z,105.40
2022-11-26T22:37:16.538Z,106.80
2022-11-26T22:39:55.151Z,106.40
2022-11-26T22:42:55.258Z,95.50
2022-11-26T22:46:24.709Z,102.00
2022-11-26T23:02:19.005Z,94.90
2022-11-26T23:05:32.646Z,93.20
2022-11-26T23:08:05.106Z,91.40
2022-11-26T23:11:19.646Z,84.50
2022-11-26T23:13:55.655Z,82.20
2022-11-26T23:17:08.686Z,81.50
2022-11-26T23:19:41.958Z,82.40
2022-11-26T23:23:20.099Z,99.90
2022-11-26T23:25:52.266Z,95.30
2022-11-26T23:28:24.473Z,81.20
2022-11-26T23:31:05.167Z,74.60
2022-11-26T23:35:13.837Z,67.00
2022-11-26T23:37:46.146Z,72.80
2022-11-26T23:40:18.695Z,65.60
2022-11-26T23:43:15.061Z,70.10
2022-11-26T23:50:51.484Z,65.90
2022-11-26T23:57:46.190Z,69.90
